sensor_id;sensor_type;location;lat;lon;timestamp;temperature;humidity
31735;DHT22;18313;48.518;9.124;2023-07-31T00:02:10;15.10;99.90
31735;DHT22;18313;48.518;9.124;2023-07-31T00:04:38;15.10;99.90
31735;DHT22;18313;48.518;9.124;2023-07-31T00:07:05;15.10;99.90
31735;DHT22;18313;48.518;9.124;2023-07-31T00:09:33;15.10;99.90
31735;DHT22;18313;48.518;9.124;2023-07-31T00:12:00;15.00;99.90
31735;DHT22;18313;48.518;9.124;2023-07-31T00:14:27;15.10;99.90
31735;DHT22;18313;48.518;9.124;2023-07-31T00:16:55;15.10;99.90
31735;DHT22;18313;48.518;9.124;2023-07-31T00:19:22;15.10;99.90
31735;DHT22;18313;48.518;9.124;2023-07-31T00:21:49;15.10;99.90
31735;DHT22;18313;48.518;9.124;2023-07-31T00:24:17;15.10;99.90
31735;DHT22;18313;48.518;9.124;2023-07-31T00:26:44;15.00;99.90
31735;DHT22;18313;48.518;9.124;2023-07-31T00:29:11;15.00;99.90
31735;DHT22;18313;48.518;9.124;2023-07-31T00:31:38;15.00;99.90
31735;DHT22;18313;48.518;9.124;2023-07-31T00:34:05;14.90;99.90
31735;DHT22;18313;48.518;9.124;2023-07-31T00:36:32;14.90;99.90
31735;DHT22;18313;48.518;9.124;2023-07-31T00:39:00;14.80;99.90
31735;DHT22;18313;48.518;9.124;2023-07-31T00:41:27;14.80;99.90
31735;DHT22;18313;48.518;9.124;2023-07-31T00:43:54;14.80;99.90
31735;DHT22;18313;48.518;9.124;2023-07-31T00:46:21;14.90;99.90
31735;DHT22;18313;48.518;9.124;2023-07-31T00:48:49;14.90;99.90
31735;DHT22;18313;48.518;9.124;2023-07-31T00:51:16;14.90;99.90
31735;DHT22;18313;48.518;9.124;2023-07-31T00:53:43;14.80;99.90
31735;DHT22;18313;48.518;9.124;2023-07-31T00:56:12;14.80;99.90
31735;DHT22;18313;48.518;9.124;2023-07-31T00:58:39;14.80;99.90
31735;DHT22;18313;48.518;9.124;2023-07-31T01:01:07;14.90;99.90
31735;DHT22;18313;48.518;9.124;2023-07-31T01:03:34;14.90;99.90
31735;DHT22;18313;48.518;9.124;2023-07-31T01:06:24;14.80;99.90
31735;DHT22;18313;48.518;9.124;2023-07-31T01:09:04;14.70;99.90
31735;DHT22;18313;48.518;9.124;2023-07-31T01:11:41;14.70;99.90
31735;DHT22;18313;48.518;9.124;2023-07-31T01:14:09;14.60;99.90
31735;DHT22;18313;48.518;9.124;2023-07-31T01:16:37;14.50;99.90
31735;DHT22;18313;48.518;9.124;2023-07-31T01:19:06;14.50;99.90
31735;DHT22;18313;48.518;9.124;2023-07-31T01:27:24;14.50;99.90
31735;DHT22;18313;48.518;9.124;2023-07-31T01:32:28;14.50;99.90
31735;DHT22;18313;48.518;9.124;2023-07-31T01:34:58;14.40;99.90
31735;DHT22;18313;48.518;9.124;2023-07-31T01:37:29;14.30;99.90
31735;DHT22;18313;48.518;9.124;2023-07-31T01:39:59;14.20;99.90
31735;DHT22;18313;48.518;9.124;2023-07-31T01:42:27;14.20;99.90
31735;DHT22;18313;48.518;9.124;2023-07-31T01:44:54;14.10;99.90
31735;DHT22;18313;48.518;9.124;2023-07-31T01:47:21;14.10;99.90
31735;DHT22;18313;48.518;9.124;2023-07-31T01:49:48;14.10;99.90
31735;DHT22;18313;48.518;9.124;2023-07-31T01:52:15;14.00;99.90
31735;DHT22;18313;48.518;9.124;2023-07-31T01:54:42;14.00;99.90
31735;DHT22;18313;48.518;9.124;2023-07-31T01:57:10;14.00;99.90
31735;DHT22;18313;48.518;9.124;2023-07-31T01:59:37;14.00;99.90
31735;DHT22;18313;48.518;9.124;2023-07-31T02:02:07;13.90;99.90
31735;DHT22;18313;48.518;9.124;2023-07-31T02:04:34;13.90;99.90
31735;DHT22;18313;48.518;9.124;2023-07-31T02:07:01;13.80;99.90
31735;DHT22;18313;48.518;9.124;2023-07-31T02:09:29;13.90;99.90
31735;DHT22;18313;48.518;9.124;2023-07-31T02:11:56;13.80;99.90
31735;DHT22;18313;48.518;9.124;2023-07-31T02:14:24;13.70;99.90
31735;DHT22;18313;48.518;9.124;2023-07-31T02:16:51;13.70;99.90
31735;DHT22;18313;48.518;9.124;2023-07-31T02:19:18;13.70;99.90
31735;DHT22;18313;48.518;9.124;2023-07-31T02:21:45;13.70;99.90
31735;DHT22;18313;48.518;9.124;2023-07-31T02:24:13;13.70;99.90
31735;DHT22;18313;48.518;9.124;2023-07-31T02:26:40;13.70;99.90
31735;DHT22;18313;48.518;9.124;2023-07-31T02:29:09;13.70;99.90
31735;DHT22;18313;48.518;9.124;2023-07-31T02:31:36;13.70;99.90
31735;DHT22;18313;48.518;9.124;2023-07-31T02:34:04;13.70;99.90
31735;DHT22;18313;48.518;9.124;2023-07-31T02:36:31;13.60;99.90
31735;DHT22;18313;48.518;9.124;2023-07-31T02:38:58;13.70;99.90
31735;DHT22;18313;48.518;9.124;2023-07-31T02:41:26;13.60;99.90
31735;DHT22;18313;48.518;9.124;2023-07-31T02:43:53;13.60;99.90
31735;DHT22;18313;48.518;9.124;2023-07-31T02:46:20;13.60;99.90
31735;DHT22;18313;48.518;9.124;2023-07-31T02:48:51;13.60;99.90
31735;DHT22;18313;48.518;9.124;2023-07-31T02:51:18;13.60;99.90
31735;DHT22;18313;48.518;9.124;2023-07-31T02:53:47;13.70;99.90
31735;DHT22;18313;48.518;9.124;2023-07-31T02:56:15;14.00;99.90
31735;DHT22;18313;48.518;9.124;2023-07-31T02:58:42;13.90;99.90
31735;DHT22;18313;48.518;9.124;2023-07-31T03:01:09;13.90;99.90
31735;DHT22;18313;48.518;9.124;2023-07-31T03:03:36;13.70;99.90
31735;DHT22;18313;48.518;9.124;2023-07-31T03:06:04;13.70;99.90
31735;DHT22;18313;48.518;9.124;2023-07-31T03:08:31;13.70;99.90
31735;DHT22;18313;48.518;9.124;2023-07-31T03:10:58;13.70;99.90
31735;DHT22;18313;48.518;9.124;2023-07-31T03:13:26;13.60;99.90
31735;DHT22;18313;48.518;9.124;2023-07-31T03:15:53;13.60;99.90
31735;DHT22;18313;48.518;9.124;2023-07-31T03:18:20;13.60;99.90
31735;DHT22;18313;48.518;9.124;2023-07-31T03:20:47;13.60;99.90
31735;DHT22;18313;48.518;9.124;2023-07-31T03:23:15;13.50;99.90
31735;DHT22;18313;48.518;9.124;2023-07-31T03:25:55;13.60;99.90
31735;DHT22;18313;48.518;9.124;2023-07-31T03:28:23;13.60;99.90
31735;DHT22;18313;48.518;9.124;2023-07-31T03:30:51;13.70;99.90
31735;DHT22;18313;48.518;9.124;2023-07-31T03:33:19;13.70;99.90
31735;DHT22;18313;48.518;9.124;2023-07-31T03:35:46;13.80;99.90
31735;DHT22;18313;48.518;9.124;2023-07-31T03:38:13;13.80;99.90
31735;DHT22;18313;48.518;9.124;2023-07-31T03:40:40;13.80;99.90
31735;DHT22;18313;48.518;9.124;2023-07-31T03:43:07;13.80;99.90
31735;DHT22;18313;48.518;9.124;2023-07-31T03:45:35;13.80;99.90
31735;DHT22;18313;48.518;9.124;2023-07-31T03:48:03;13.80;99.90
31735;DHT22;18313;48.518;9.124;2023-07-31T03:50:30;13.70;99.90
31735;DHT22;18313;48.518;9.124;2023-07-31T03:52:57;13.80;99.90
31735;DHT22;18313;48.518;9.124;2023-07-31T03:55:24;13.90;99.90
31735;DHT22;18313;48.518;9.124;2023-07-31T03:57:52;13.90;99.90
31735;DHT22;18313;48.518;9.124;2023-07-31T04:00:19;13.90;99.90
31735;DHT22;18313;48.518;9.124;2023-07-31T04:02:48;13.90;99.90
31735;DHT22;18313;48.518;9.124;2023-07-31T04:05:15;13.90;99.90
31735;DHT22;18313;48.518;9.124;2023-07-31T04:07:42;13.80;99.90
31735;DHT22;18313;48.518;9.124;2023-07-31T04:10:10;13.80;99.90
31735;DHT22;18313;48.518;9.124;2023-07-31T04:12:39;13.70;99.90
31735;DHT22;18313;48.518;9.124;2023-07-31T04:15:07;13.70;99.90
31735;DHT22;18313;48.518;9.124;2023-07-31T04:17:35;13.70;99.90
31735;DHT22;18313;48.518;9.124;2023-07-31T04:20:02;13.70;99.90
31735;DHT22;18313;48.518;9.124;2023-07-31T04:22:30;13.70;99.90
31735;DHT22;18313;48.518;9.124;2023-07-31T04:24:57;13.70;99.90
31735;DHT22;18313;48.518;9.124;2023-07-31T04:27:25;13.80;99.90
31735;DHT22;18313;48.518;9.124;2023-07-31T04:29:52;13.80;99.90
31735;DHT22;18313;48.518;9.124;2023-07-31T04:32:20;13.80;99.90
31735;DHT22;18313;48.518;9.124;2023-07-31T04:34:48;13.70;99.90
31735;DHT22;18313;48.518;9.124;2023-07-31T04:37:15;13.80;99.90
31735;DHT22;18313;48.518;9.124;2023-07-31T04:39:42;14.00;99.90
31735;DHT22;18313;48.518;9.124;2023-07-31T04:42:10;14.00;99.90
31735;DHT22;18313;48.518;9.124;2023-07-31T04:44:37;13.90;99.90
31735;DHT22;18313;48.518;9.124;2023-07-31T04:47:04;14.00;99.90
31735;DHT22;18313;48.518;9.124;2023-07-31T04:49:32;14.10;99.90
31735;DHT22;18313;48.518;9.124;2023-07-31T04:51:59;14.10;99.90
31735;DHT22;18313;48.518;9.124;2023-07-31T04:54:27;14.20;99.90
31735;DHT22;18313;48.518;9.124;2023-07-31T04:56:55;14.20;99.90
31735;DHT22;18313;48.518;9.124;2023-07-31T04:59:22;14.30;99.90
31735;DHT22;18313;48.518;9.124;2023-07-31T05:01:50;14.40;99.90
31735;DHT22;18313;48.518;9.124;2023-07-31T05:04:17;14.40;99.90
31735;DHT22;18313;48.518;9.124;2023-07-31T05:06:45;14.40;99.90
31735;DHT22;18313;48.518;9.124;2023-07-31T05:09:12;14.50;99.90
31735;DHT22;18313;48.518;9.124;2023-07-31T05:11:40;14.50;99.90
31735;DHT22;18313;48.518;9.124;2023-07-31T05:14:10;14.50;99.90
31735;DHT22;18313;48.518;9.124;2023-07-31T05:16:37;14.60;99.90
31735;DHT22;18313;48.518;9.124;2023-07-31T05:19:05;14.60;99.90
31735;DHT22;18313;48.518;9.124;2023-07-31T05:21:32;14.70;99.90
31735;DHT22;18313;48.518;9.124;2023-07-31T05:23:59;14.80;99.90
31735;DHT22;18313;48.518;9.124;2023-07-31T05:26:26;14.90;99.90
31735;DHT22;18313;48.518;9.124;2023-07-31T05:28:54;14.90;99.90
31735;DHT22;18313;48.518;9.124;2023-07-31T05:31:21;14.90;99.90
31735;DHT22;18313;48.518;9.124;2023-07-31T05:33:49;15.00;99.90
31735;DHT22;18313;48.518;9.124;2023-07-31T05:36:17;15.20;99.90
31735;DHT22;18313;48.518;9.124;2023-07-31T05:38:44;15.40;99.90
31735;DHT22;18313;48.518;9.124;2023-07-31T05:41:12;15.60;99.90
31735;DHT22;18313;48.518;9.124;2023-07-31T05:43:40;15.70;99.90
31735;DHT22;18313;48.518;9.124;2023-07-31T05:46:07;15.70;99.90
31735;DHT22;18313;48.518;9.124;2023-07-31T05:48:36;15.80;99.90
31735;DHT22;18313;48.518;9.124;2023-07-31T05:51:03;15.90;99.90
31735;DHT22;18313;48.518;9.124;2023-07-31T05:53:30;15.90;99.90
31735;DHT22;18313;48.518;9.124;2023-07-31T05:55:57;16.10;99.90
31735;DHT22;18313;48.518;9.124;2023-07-31T05:58:24;16.20;99.90
31735;DHT22;18313;48.518;9.124;2023-07-31T06:00:52;16.30;99.90
31735;DHT22;18313;48.518;9.124;2023-07-31T06:03:19;16.40;99.90
31735;DHT22;18313;48.518;9.124;2023-07-31T06:05:46;16.30;99.90
31735;DHT22;18313;48.518;9.124;2023-07-31T06:08:14;16.30;99.90
31735;DHT22;18313;48.518;9.124;2023-07-31T06:10:41;16.40;99.90
31735;DHT22;18313;48.518;9.124;2023-07-31T06:13:08;16.40;99.90
31735;DHT22;18313;48.518;9.124;2023-07-31T06:15:36;16.50;99.90
31735;DHT22;18313;48.518;9.124;2023-07-31T06:18:03;16.50;99.90
31735;DHT22;18313;48.518;9.124;2023-07-31T06:20:32;16.40;99.90
31735;DHT22;18313;48.518;9.124;2023-07-31T06:22:59;16.40;99.90
31735;DHT22;18313;48.518;9.124;2023-07-31T06:25:26;16.40;99.90
31735;DHT22;18313;48.518;9.124;2023-07-31T06:27:53;16.50;99.90
31735;DHT22;18313;48.518;9.124;2023-07-31T06:30:21;16.40;99.90
31735;DHT22;18313;48.518;9.124;2023-07-31T06:32:48;16.40;99.90
31735;DHT22;18313;48.518;9.124;2023-07-31T06:35:16;16.40;99.90
31735;DHT22;18313;48.518;9.124;2023-07-31T06:37:43;16.50;99.90
31735;DHT22;18313;48.518;9.124;2023-07-31T06:40:11;16.50;99.90
31735;DHT22;18313;48.518;9.124;2023-07-31T06:42:38;16.70;99.90
31735;DHT22;18313;48.518;9.124;2023-07-31T06:45:06;16.90;99.90
31735;DHT22;18313;48.518;9.124;2023-07-31T06:47:34;17.20;99.90
31735;DHT22;18313;48.518;9.124;2023-07-31T06:50:01;17.40;99.90
31735;DHT22;18313;48.518;9.124;2023-07-31T06:52:29;17.60;99.90
31735;DHT22;18313;48.518;9.124;2023-07-31T06:55:19;17.70;99.90
31735;DHT22;18313;48.518;9.124;2023-07-31T06:57:47;17.90;99.90
31735;DHT22;18313;48.518;9.124;2023-07-31T07:00:15;18.10;99.90
31735;DHT22;18313;48.518;9.124;2023-07-31T07:02:43;18.30;99.90
31735;DHT22;18313;48.518;9.124;2023-07-31T07:05:10;18.50;99.90
31735;DHT22;18313;48.518;9.124;2023-07-31T07:07:38;18.70;99.90
31735;DHT22;18313;48.518;9.124;2023-07-31T07:10:06;18.70;99.90
31735;DHT22;18313;48.518;9.124;2023-07-31T07:12:34;18.80;99.90
31735;DHT22;18313;48.518;9.124;2023-07-31T07:15:01;19.00;99.90
31735;DHT22;18313;48.518;9.124;2023-07-31T07:17:30;19.10;99.90
31735;DHT22;18313;48.518;9.124;2023-07-31T07:20:00;19.20;99.90
31735;DHT22;18313;48.518;9.124;2023-07-31T07:22:27;19.20;99.90
31735;DHT22;18313;48.518;9.124;2023-07-31T07:24:56;19.40;99.90
31735;DHT22;18313;48.518;9.124;2023-07-31T07:27:23;19.30;99.90
31735;DHT22;18313;48.518;9.124;2023-07-31T07:29:51;19.40;99.90
31735;DHT22;18313;48.518;9.124;2023-07-31T07:32:21;19.50;99.90
31735;DHT22;18313;48.518;9.124;2023-07-31T07:34:48;19.60;99.90
31735;DHT22;18313;48.518;9.124;2023-07-31T07:37:16;19.50;99.90
31735;DHT22;18313;48.518;9.124;2023-07-31T07:39:44;19.50;99.90
31735;DHT22;18313;48.518;9.124;2023-07-31T07:42:11;19.60;99.90
31735;DHT22;18313;48.518;9.124;2023-07-31T07:44:40;19.70;99.90
31735;DHT22;18313;48.518;9.124;2023-07-31T07:47:07;19.80;99.90
31735;DHT22;18313;48.518;9.124;2023-07-31T07:49:35;19.90;99.90
31735;DHT22;18313;48.518;9.124;2023-07-31T07:52:03;20.00;99.90
31735;DHT22;18313;48.518;9.124;2023-07-31T07:54:30;20.20;99.90
31735;DHT22;18313;48.518;9.124;2023-07-31T07:56:58;20.30;99.90
31735;DHT22;18313;48.518;9.124;2023-07-31T07:59:26;20.40;99.90
31735;DHT22;18313;48.518;9.124;2023-07-31T08:01:53;20.60;99.90
31735;DHT22;18313;48.518;9.124;2023-07-31T08:04:20;20.60;99.90
31735;DHT22;18313;48.518;9.124;2023-07-31T08:06:48;20.60;99.90
31735;DHT22;18313;48.518;9.124;2023-07-31T08:09:15;20.50;99.90
31735;DHT22;18313;48.518;9.124;2023-07-31T08:11:44;20.60;99.90
31735;DHT22;18313;48.518;9.124;2023-07-31T08:14:11;20.60;99.90
31735;DHT22;18313;48.518;9.124;2023-07-31T08:16:38;20.80;99.90
31735;DHT22;18313;48.518;9.124;2023-07-31T08:19:06;20.90;99.20
31735;DHT22;18313;48.518;9.124;2023-07-31T08:21:33;21.00;99.00
31735;DHT22;18313;48.518;9.124;2023-07-31T08:24:00;20.90;98.90
31735;DHT22;18313;48.518;9.124;2023-07-31T08:26:27;21.10;99.90
31735;DHT22;18313;48.518;9.124;2023-07-31T08:28:55;21.20;98.40
31735;DHT22;18313;48.518;9.124;2023-07-31T08:31:24;21.50;98.90
31735;DHT22;18313;48.518;9.124;2023-07-31T08:33:51;21.80;97.80
31735;DHT22;18313;48.518;9.124;2023-07-31T08:36:19;21.90;98.10
31735;DHT22;18313;48.518;9.124;2023-07-31T08:38:46;21.90;97.20
31735;DHT22;18313;48.518;9.124;2023-07-31T08:41:13;22.10;97.00
31735;DHT22;18313;48.518;9.124;2023-07-31T08:43:41;22.10;97.10
31735;DHT22;18313;48.518;9.124;2023-07-31T08:46:08;22.30;96.80
31735;DHT22;18313;48.518;9.124;2023-07-31T08:48:37;22.60;97.20
31735;DHT22;18313;48.518;9.124;2023-07-31T08:51:05;22.80;97.00
31735;DHT22;18313;48.518;9.124;2023-07-31T08:53:32;23.10;96.30
31735;DHT22;18313;48.518;9.124;2023-07-31T08:55:59;23.00;96.60
31735;DHT22;18313;48.518;9.124;2023-07-31T08:58:31;22.90;95.40
31735;DHT22;18313;48.518;9.124;2023-07-31T09:01:01;23.10;96.80
31735;DHT22;18313;48.518;9.124;2023-07-31T09:03:28;23.40;96.60
31735;DHT22;18313;48.518;9.124;2023-07-31T09:05:57;23.50;96.00
31735;DHT22;18313;48.518;9.124;2023-07-31T09:08:30;23.60;96.00
31735;DHT22;18313;48.518;9.124;2023-07-31T09:11:01;23.80;95.30
31735;DHT22;18313;48.518;9.124;2023-07-31T09:13:32;23.50;95.50
31735;DHT22;18313;48.518;9.124;2023-07-31T09:15:59;23.20;94.90
31735;DHT22;18313;48.518;9.124;2023-07-31T09:18:26;23.20;96.00
31735;DHT22;18313;48.518;9.124;2023-07-31T09:21:04;23.50;95.80
31735;DHT22;18313;48.518;9.124;2023-07-31T09:23:45;23.80;95.40
31735;DHT22;18313;48.518;9.124;2023-07-31T09:26:29;24.10;95.50
31735;DHT22;18313;48.518;9.124;2023-07-31T09:28:58;24.30;95.20
31735;DHT22;18313;48.518;9.124;2023-07-31T09:31:39;24.60;95.00
31735;DHT22;18313;48.518;9.124;2023-07-31T09:34:07;24.50;93.80
31735;DHT22;18313;48.518;9.124;2023-07-31T09:36:47;24.20;94.70
31735;DHT22;18313;48.518;9.124;2023-07-31T09:39:17;24.00;95.20
31735;DHT22;18313;48.518;9.124;2023-07-31T09:41:46;23.80;93.90
31735;DHT22;18313;48.518;9.124;2023-07-31T09:44:14;23.30;94.70
31735;DHT22;18313;48.518;9.124;2023-07-31T09:46:41;23.10;95.20
31735;DHT22;18313;48.518;9.124;2023-07-31T09:49:11;23.10;95.70
31735;DHT22;18313;48.518;9.124;2023-07-31T09:51:40;23.00;95.00
31735;DHT22;18313;48.518;9.124;2023-07-31T09:54:15;23.00;95.20
31735;DHT22;18313;48.518;9.124;2023-07-31T09:56:47;22.90;94.80
31735;DHT22;18313;48.518;9.124;2023-07-31T09:59:19;23.10;96.50
31735;DHT22;18313;48.518;9.124;2023-07-31T10:01:50;23.60;95.20
31735;DHT22;18313;48.518;9.124;2023-07-31T10:04:24;23.80;94.90
31735;DHT22;18313;48.518;9.124;2023-07-31T10:06:55;24.00;94.30
31735;DHT22;18313;48.518;9.124;2023-07-31T10:09:25;24.20;94.20
31735;DHT22;18313;48.518;9.124;2023-07-31T10:12:00;24.30;93.80
31735;DHT22;18313;48.518;9.124;2023-07-31T10:14:30;24.40;94.40
31735;DHT22;18313;48.518;9.124;2023-07-31T10:16:58;24.40;93.70
31735;DHT22;18313;48.518;9.124;2023-07-31T10:19:26;24.30;93.20
31735;DHT22;18313;48.518;9.124;2023-07-31T10:21:54;24.20;93.70
31735;DHT22;18313;48.518;9.124;2023-07-31T10:24:24;24.20;94.20
31735;DHT22;18313;48.518;9.124;2023-07-31T10:26:53;24.60;94.00
31735;DHT22;18313;48.518;9.124;2023-07-31T10:29:22;24.50;93.00
31735;DHT22;18313;48.518;9.124;2023-07-31T10:31:51;24.30;93.50
31735;DHT22;18313;48.518;9.124;2023-07-31T10:34:19;24.40;94.00
31735;DHT22;18313;48.518;9.124;2023-07-31T10:36:46;24.70;94.20
31735;DHT22;18313;48.518;9.124;2023-07-31T10:39:35;25.00;93.80
31735;DHT22;18313;48.518;9.124;2023-07-31T10:42:11;25.10;93.30
31735;DHT22;18313;48.518;9.124;2023-07-31T10:44:44;25.40;93.40
31735;DHT22;18313;48.518;9.124;2023-07-31T10:47:14;25.60;92.90
31735;DHT22;18313;48.518;9.124;2023-07-31T10:49:45;25.60;91.90
31735;DHT22;18313;48.518;9.124;2023-07-31T10:52:13;25.50;93.40
31735;DHT22;18313;48.518;9.124;2023-07-31T10:54:41;25.80;92.60
31735;DHT22;18313;48.518;9.124;2023-07-31T10:57:21;25.90;92.40
31735;DHT22;18313;48.518;9.124;2023-07-31T10:59:50;25.90;92.20
31735;DHT22;18313;48.518;9.124;2023-07-31T11:02:26;26.10;92.20
31735;DHT22;18313;48.518;9.124;2023-07-31T11:05:10;26.30;91.70
31735;DHT22;18313;48.518;9.124;2023-07-31T11:07:50;26.30;92.20
31735;DHT22;18313;48.518;9.124;2023-07-31T11:10:20;26.40;91.80
31735;DHT22;18313;48.518;9.124;2023-07-31T11:12:49;26.50;90.90
31735;DHT22;18313;48.518;9.124;2023-07-31T11:15:16;26.60;92.30
31735;DHT22;18313;48.518;9.124;2023-07-31T11:17:44;26.80;91.80
31735;DHT22;18313;48.518;9.124;2023-07-31T11:20:11;26.80;90.70
31735;DHT22;18313;48.518;9.124;2023-07-31T11:22:38;26.70;91.60
31735;DHT22;18313;48.518;9.124;2023-07-31T11:25:06;26.90;90.60
31735;DHT22;18313;48.518;9.124;2023-07-31T11:27:39;26.80;90.70
31735;DHT22;18313;48.518;9.124;2023-07-31T11:30:08;26.70;90.00
31735;DHT22;18313;48.518;9.124;2023-07-31T11:32:38;26.90;91.60
31735;DHT22;18313;48.518;9.124;2023-07-31T11:35:07;27.20;90.30
31735;DHT22;18313;48.518;9.124;2023-07-31T11:37:43;27.20;90.50
31735;DHT22;18313;48.518;9.124;2023-07-31T11:40:10;27.30;90.20
31735;DHT22;18313;48.518;9.124;2023-07-31T11:42:38;27.10;90.80
31735;DHT22;18313;48.518;9.124;2023-07-31T11:45:06;26.70;90.00
31735;DHT22;18313;48.518;9.124;2023-07-31T11:47:35;26.50;91.00
31735;DHT22;18313;48.518;9.124;2023-07-31T11:50:04;26.60;90.10
31735;DHT22;18313;48.518;9.124;2023-07-31T11:52:39;26.60;90.90
31735;DHT22;18313;48.518;9.124;2023-07-31T11:55:08;26.40;90.40
31735;DHT22;18313;48.518;9.124;2023-07-31T11:57:40;26.30;90.60
31735;DHT22;18313;48.518;9.124;2023-07-31T12:00:09;26.10;91.30
31735;DHT22;18313;48.518;9.124;2023-07-31T12:02:38;26.10;91.10
31735;DHT22;18313;48.518;9.124;2023-07-31T12:05:13;26.00;92.00
31735;DHT22;18313;48.518;9.124;2023-07-31T12:07:49;25.90;91.60
31735;DHT22;18313;48.518;9.124;2023-07-31T12:10:43;25.60;91.40
31735;DHT22;18313;48.518;9.124;2023-07-31T12:13:20;25.50;92.00
31735;DHT22;18313;48.518;9.124;2023-07-31T12:15:47;25.40;93.30
31735;DHT22;18313;48.518;9.124;2023-07-31T12:18:18;25.40;93.10
31735;DHT22;18313;48.518;9.124;2023-07-31T12:20:49;25.20;92.50
31735;DHT22;18313;48.518;9.124;2023-07-31T12:23:30;24.90;93.20
31735;DHT22;18313;48.518;9.124;2023-07-31T12:28:40;24.50;93.30
31735;DHT22;18313;48.518;9.124;2023-07-31T12:31:13;24.50;93.30
31735;DHT22;18313;48.518;9.124;2023-07-31T12:33:41;24.60;93.10
31735;DHT22;18313;48.518;9.124;2023-07-31T12:36:16;24.50;93.20
31735;DHT22;18313;48.518;9.124;2023-07-31T12:38:46;24.70;92.90
31735;DHT22;18313;48.518;9.124;2023-07-31T12:41:13;25.00;93.00
31735;DHT22;18313;48.518;9.124;2023-07-31T12:43:41;25.30;93.30
31735;DHT22;18313;48.518;9.124;2023-07-31T12:46:09;25.70;92.90
31735;DHT22;18313;48.518;9.124;2023-07-31T12:48:37;25.90;92.60
31735;DHT22;18313;48.518;9.124;2023-07-31T12:51:05;26.20;92.50
31735;DHT22;18313;48.518;9.124;2023-07-31T12:53:36;26.50;91.30
31735;DHT22;18313;48.518;9.124;2023-07-31T12:56:03;26.80;91.60
31735;DHT22;18313;48.518;9.124;2023-07-31T12:58:31;26.80;91.20
31735;DHT22;18313;48.518;9.124;2023-07-31T13:00:58;26.80;91.30
31735;DHT22;18313;48.518;9.124;2023-07-31T13:03:26;26.90;91.10
31735;DHT22;18313;48.518;9.124;2023-07-31T13:05:54;26.90;91.60
31735;DHT22;18313;48.518;9.124;2023-07-31T13:08:21;26.70;91.70
31735;DHT22;18313;48.518;9.124;2023-07-31T13:10:49;26.80;91.30
31735;DHT22;18313;48.518;9.124;2023-07-31T13:13:16;26.70;91.80
31735;DHT22;18313;48.518;9.124;2023-07-31T13:15:44;26.80;90.10
31735;DHT22;18313;48.518;9.124;2023-07-31T13:18:11;27.10;91.10
31735;DHT22;18313;48.518;9.124;2023-07-31T13:20:39;27.50;91.50
31735;DHT22;18313;48.518;9.124;2023-07-31T13:23:06;27.80;90.90
31735;DHT22;18313;48.518;9.124;2023-07-31T13:25:33;27.80;90.10
31735;DHT22;18313;48.518;9.124;2023-07-31T13:28:00;27.70;90.10
31735;DHT22;18313;48.518;9.124;2023-07-31T13:30:29;27.60;89.50
31735;DHT22;18313;48.518;9.124;2023-07-31T13:32:56;27.40;88.80
31735;DHT22;18313;48.518;9.124;2023-07-31T13:35:24;27.20;90.10
31735;DHT22;18313;48.518;9.124;2023-07-31T13:37:51;26.90;90.10
31735;DHT22;18313;48.518;9.124;2023-07-31T13:40:18;26.50;89.90
31735;DHT22;18313;48.518;9.124;2023-07-31T13:42:45;26.10;90.30
31735;DHT22;18313;48.518;9.124;2023-07-31T13:45:17;26.00;90.20
31735;DHT22;18313;48.518;9.124;2023-07-31T13:47:44;25.50;90.50
31735;DHT22;18313;48.518;9.124;2023-07-31T13:50:11;25.20;90.80
31735;DHT22;18313;48.518;9.124;2023-07-31T13:52:38;25.20;91.50
31735;DHT22;18313;48.518;9.124;2023-07-31T13:55:06;25.10;90.80
31735;DHT22;18313;48.518;9.124;2023-07-31T13:57:33;24.90;91.50
31735;DHT22;18313;48.518;9.124;2023-07-31T14:00:02;24.70;91.50
31735;DHT22;18313;48.518;9.124;2023-07-31T14:02:30;24.60;91.40
31735;DHT22;18313;48.518;9.124;2023-07-31T14:04:57;24.50;91.40
31735;DHT22;18313;48.518;9.124;2023-07-31T14:07:24;24.30;91.50
31735;DHT22;18313;48.518;9.124;2023-07-31T14:09:54;24.20;91.60
31735;DHT22;18313;48.518;9.124;2023-07-31T14:12:21;24.10;91.70
31735;DHT22;18313;48.518;9.124;2023-07-31T14:15:08;23.90;91.60
31735;DHT22;18313;48.518;9.124;2023-07-31T14:17:35;23.90;92.20
31735;DHT22;18313;48.518;9.124;2023-07-31T14:20:03;24.00;92.40
31735;DHT22;18313;48.518;9.124;2023-07-31T14:22:31;23.90;92.10
31735;DHT22;18313;48.518;9.124;2023-07-31T14:25:00;24.00;92.40
31735;DHT22;18313;48.518;9.124;2023-07-31T14:27:29;24.00;92.40
31735;DHT22;18313;48.518;9.124;2023-07-31T14:29:57;23.90;92.80
31735;DHT22;18313;48.518;9.124;2023-07-31T14:32:24;23.80;92.80
31735;DHT22;18313;48.518;9.124;2023-07-31T14:34:52;23.60;93.10
31735;DHT22;18313;48.518;9.124;2023-07-31T14:37:21;23.60;92.70
31735;DHT22;18313;48.518;9.124;2023-07-31T14:39:48;23.50;92.70
31735;DHT22;18313;48.518;9.124;2023-07-31T14:42:17;23.50;93.10
31735;DHT22;18313;48.518;9.124;2023-07-31T14:44:46;23.50;92.80
31735;DHT22;18313;48.518;9.124;2023-07-31T14:47:14;23.40;92.40
31735;DHT22;18313;48.518;9.124;2023-07-31T14:49:41;23.40;92.60
31735;DHT22;18313;48.518;9.124;2023-07-31T14:52:08;23.40;92.70
31735;DHT22;18313;48.518;9.124;2023-07-31T14:54:36;23.40;93.00
31735;DHT22;18313;48.518;9.124;2023-07-31T14:57:03;23.30;93.20
31735;DHT22;18313;48.518;9.124;2023-07-31T14:59:30;23.30;93.30
31735;DHT22;18313;48.518;9.124;2023-07-31T15:01:57;23.20;93.50
31735;DHT22;18313;48.518;9.124;2023-07-31T15:04:25;23.20;93.10
31735;DHT22;18313;48.518;9.124;2023-07-31T15:06:52;23.20;93.60
31735;DHT22;18313;48.518;9.124;2023-07-31T15:09:20;23.10;93.60
31735;DHT22;18313;48.518;9.124;2023-07-31T15:11:47;23.10;94.00
31735;DHT22;18313;48.518;9.124;2023-07-31T15:14:15;23.10;94.10
31735;DHT22;18313;48.518;9.124;2023-07-31T15:16:43;23.10;93.90
31735;DHT22;18313;48.518;9.124;2023-07-31T15:19:10;23.20;93.90
31735;DHT22;18313;48.518;9.124;2023-07-31T15:21:38;23.20;93.80
31735;DHT22;18313;48.518;9.124;2023-07-31T15:24:06;23.20;93.70
31735;DHT22;18313;48.518;9.124;2023-07-31T15:26:33;23.20;93.80
31735;DHT22;18313;48.518;9.124;2023-07-31T15:29:03;23.30;94.00
31735;DHT22;18313;48.518;9.124;2023-07-31T15:31:32;23.30;94.20
31735;DHT22;18313;48.518;9.124;2023-07-31T15:34:01;23.30;94.10
31735;DHT22;18313;48.518;9.124;2023-07-31T15:36:30;23.30;94.30
31735;DHT22;18313;48.518;9.124;2023-07-31T15:39:00;23.30;94.90
31735;DHT22;18313;48.518;9.124;2023-07-31T15:41:27;23.50;94.90
31735;DHT22;18313;48.518;9.124;2023-07-31T15:43:56;23.50;94.90
31735;DHT22;18313;48.518;9.124;2023-07-31T15:46:23;23.50;94.80
31735;DHT22;18313;48.518;9.124;2023-07-31T15:48:52;23.40;94.60
31735;DHT22;18313;48.518;9.124;2023-07-31T15:51:20;23.20;94.70